sensor_id;sensor_type;location;lat;lon;timestamp;pressure;altitude;pressure_sealevel;temperature;humidity
56992;BME280;42885;49.754;18.636;2022-08-30T00:00:19;98695.12;;;16.60;100.00
56992;BME280;42885;49.754;18.636;2022-08-30T00:03:10;98695.70;;;16.53;100.00
56992;BME280;42885;49.754;18.636;2022-08-30T00:05:43;98686.47;;;16.41;100.00
56992;BME280;42885;49.754;18.636;2022-08-30T00:08:14;98692.34;;;16.50;100.00
56992;BME280;42885;49.754;18.636;2022-08-30T00:10:45;98697.86;;;16.42;100.00
56992;BME280;42885;49.754;18.636;2022-08-30T00:13:18;98696.25;;;15.93;100.00
56992;BME280;42885;49.754;18.636;2022-08-30T00:15:49;98695.23;;;16.53;100.00
56992;BME280;42885;49.754;18.636;2022-08-30T00:18:20;98693.05;;;16.18;100.00
56992;BME280;42885;49.754;18.636;2022-08-30T00:20:51;98696.55;;;16.30;100.00
56992;BME280;42885;49.754;18.636;2022-08-30T00:23:24;98700.64;;;16.46;100.00
56992;BME280;42885;49.754;18.636;2022-08-30T00:25:55;98707.46;;;16.37;100.00
56992;BME280;42885;49.754;18.636;2022-08-30T00:28:26;98700.50;;;16.19;100.00
56992;BME280;42885;49.754;18.636;2022-08-30T00:30:56;98710.21;;;16.13;100.00
56992;BME280;42885;49.754;18.636;2022-08-30T00:33:28;98706.96;;;16.09;100.00
56992;BME280;42885;49.754;18.636;2022-08-30T00:35:59;98700.50;;;16.36;100.00
56992;BME280;42885;49.754;18.636;2022-08-30T00:38:30;98697.87;;;16.19;100.00
56992;BME280;42885;49.754;18.636;2022-08-30T00:41:01;98699.25;;;16.00;100.00
56992;BME280;42885;49.754;18.636;2022-08-30T00:43:33;98696.14;;;16.01;100.00
56992;BME280;42885;49.754;18.636;2022-08-30T00:46:05;98694.58;;;16.04;100.00
56992;BME280;42885;49.754;18.636;2022-08-30T00:48:39;98692.29;;;15.93;100.00
56992;BME280;42885;49.754;18.636;2022-08-30T00:51:12;98705.86;;;16.06;100.00
56992;BME280;42885;49.754;18.636;2022-08-30T00:54:03;98699.64;;;16.07;100.00
56992;BME280;42885;49.754;18.636;2022-08-30T00:56:35;98703.41;;;15.86;100.00
56992;BME280;42885;49.754;18.636;2022-08-30T00:59:07;98695.78;;;15.64;100.00
56992;BME280;42885;49.754;18.636;2022-08-30T01:01:39;98703.80;;;15.62;100.00
56992;BME280;42885;49.754;18.636;2022-08-30T01:04:11;98700.11;;;15.76;100.00
56992;BME280;42885;49.754;18.636;2022-08-30T01:06:43;98702.10;;;15.55;100.00
56992;BME280;42885;49.754;18.636;2022-08-30T01:09:14;98701.06;;;15.69;100.00
56992;BME280;42885;49.754;18.636;2022-08-30T01:11:46;98699.73;;;15.64;100.00
56992;BME280;42885;49.754;18.636;2022-08-30T01:14:17;98695.78;;;15.64;100.00
56992;BME280;42885;49.754;18.636;2022-08-30T01:17:02;98693.05;;;15.77;100.00
56992;BME280;42885;49.754;18.636;2022-08-30T01:19:49;98687.16;;;15.37;100.00
56992;BME280;42885;49.754;18.636;2022-08-30T01:25:20;98688.33;;;15.27;100.00
56992;BME280;42885;49.754;18.636;2022-08-30T01:28:04;98683.91;;;15.69;100.00
56992;BME280;42885;49.754;18.636;2022-08-30T01:30:24;98683.55;;;15.63;100.00
56992;BME280;42885;49.754;18.636;2022-08-30T01:33:01;98685.28;;;15.45;100.00
56992;BME280;42885;49.754;18.636;2022-08-30T01:35:56;98683.47;;;15.46;100.00
56992;BME280;42885;49.754;18.636;2022-08-30T01:38:45;98687.37;;;15.64;100.00
56992;BME280;42885;49.754;18.636;2022-08-30T01:43:52;98686.91;;;16.01;100.00
56992;BME280;42885;49.754;18.636;2022-08-30T01:46:27;98690.00;;;15.64;100.00
56992;BME280;42885;49.754;18.636;2022-08-30T01:48:57;98687.78;;;15.77;100.00
56992;BME280;42885;49.754;18.636;2022-08-30T01:51:29;98691.73;;;15.77;100.00
56992;BME280;42885;49.754;18.636;2022-08-30T01:54:00;98687.00;;;15.63;100.00
56992;BME280;42885;49.754;18.636;2022-08-30T01:56:31;98684.27;;;15.71;100.00
56992;BME280;42885;49.754;18.636;2022-08-30T01:59:02;98683.94;;;15.81;100.00
56992;BME280;42885;49.754;18.636;2022-08-30T02:01:34;98682.84;;;15.72;100.00
56992;BME280;42885;49.754;18.636;2022-08-30T02:04:06;98685.58;;;15.65;100.00
56992;BME280;42885;49.754;18.636;2022-08-30T02:06:38;98677.32;;;15.69;100.00
56992;BME280;42885;49.754;18.636;2022-08-30T02:09:11;98685.57;;;15.59;100.00
56992;BME280;42885;49.754;18.636;2022-08-30T02:11:42;98679.39;;;15.41;100.00
56992;BME280;42885;49.754;18.636;2022-08-30T02:14:14;98672.89;;;15.34;100.00
56992;BME280;42885;49.754;18.636;2022-08-30T02:16:47;98679.36;;;15.11;100.00
56992;BME280;42885;49.754;18.636;2022-08-30T02:19:18;98674.23;;;15.46;100.00
56992;BME280;42885;49.754;18.636;2022-08-30T02:21:49;98670.16;;;15.41;100.00
56992;BME280;42885;49.754;18.636;2022-08-30T02:24:20;98675.70;;;15.44;100.00
56992;BME280;42885;49.754;18.636;2022-08-30T02:26:51;98673.64;;;15.48;100.00
56992;BME280;42885;49.754;18.636;2022-08-30T02:29:25;98679.48;;;15.34;100.00
56992;BME280;42885;49.754;18.636;2022-08-30T02:31:59;98679.38;;;15.36;100.00
56992;BME280;42885;49.754;18.636;2022-08-30T02:34:30;98681.60;;;15.29;100.00
56992;BME280;42885;49.754;18.636;2022-08-30T02:37:01;98683.27;;;15.00;100.00
56992;BME280;42885;49.754;18.636;2022-08-30T02:39:33;98679.45;;;14.85;100.00
56992;BME280;42885;49.754;18.636;2022-08-30T02:42:04;98678.74;;;15.08;100.00
56992;BME280;42885;49.754;18.636;2022-08-30T02:44:35;98677.45;;;15.13;100.00
56992;BME280;42885;49.754;18.636;2022-08-30T02:47:06;98675.64;;;15.08;100.00
56992;BME280;42885;49.754;18.636;2022-08-30T02:49:37;98680.78;;;14.72;100.00
56992;BME280;42885;49.754;18.636;2022-08-30T02:52:08;98681.16;;;14.42;100.00
56992;BME280;42885;49.754;18.636;2022-08-30T02:54:38;98682.67;;;14.39;100.00
56992;BME280;42885;49.754;18.636;2022-08-30T02:57:09;98675.67;;;14.64;100.00
56992;BME280;42885;49.754;18.636;2022-08-30T02:59:42;98678.80;;;14.76;100.00
56992;BME280;42885;49.754;18.636;2022-08-30T03:02:14;98676.50;;;14.58;100.00
56992;BME280;42885;49.754;18.636;2022-08-30T03:04:45;98679.70;;;14.69;100.00
56992;BME280;42885;49.754;18.636;2022-08-30T03:07:16;98677.22;;;14.73;100.00
56992;BME280;42885;49.754;18.636;2022-08-30T03:09:47;98683.02;;;14.66;100.00
56992;BME280;42885;49.754;18.636;2022-08-30T03:12:18;98681.47;;;14.50;100.00
56992;BME280;42885;49.754;18.636;2022-08-30T03:14:49;98678.48;;;14.68;100.00
56992;BME280;42885;49.754;18.636;2022-08-30T03:17:20;98685.47;;;14.43;100.00
56992;BME280;42885;49.754;18.636;2022-08-30T03:19:50;98685.80;;;14.38;100.00
56992;BME280;42885;49.754;18.636;2022-08-30T03:22:22;98686.10;;;14.47;100.00
56992;BME280;42885;49.754;18.636;2022-08-30T03:24:53;98693.52;;;14.34;100.00
56992;BME280;42885;49.754;18.636;2022-08-30T03:27:28;98687.89;;;14.65;100.00
56992;BME280;42885;49.754;18.636;2022-08-30T03:29:59;98694.69;;;14.43;100.00
56992;BME280;42885;49.754;18.636;2022-08-30T03:32:30;98687.82;;;14.53;100.00
56992;BME280;42885;49.754;18.636;2022-08-30T03:35:01;98691.20;;;14.42;100.00
56992;BME280;42885;49.754;18.636;2022-08-30T03:37:32;98700.02;;;14.36;100.00
56992;BME280;42885;49.754;18.636;2022-08-30T03:40:04;98699.70;;;14.14;100.00
56992;BME280;42885;49.754;18.636;2022-08-30T03:42:36;98701.23;;;14.24;100.00
56992;BME280;42885;49.754;18.636;2022-08-30T03:45:08;98700.77;;;14.56;100.00
56992;BME280;42885;49.754;18.636;2022-08-30T03:47:39;98710.61;;;14.60;100.00
56992;BME280;42885;49.754;18.636;2022-08-30T03:50:10;98707.15;;;14.59;100.00
56992;BME280;42885;49.754;18.636;2022-08-30T03:52:42;98708.16;;;14.51;100.00
56992;BME280;42885;49.754;18.636;2022-08-30T03:55:14;98710.25;;;14.59;100.00
56992;BME280;42885;49.754;18.636;2022-08-30T03:57:45;98711.12;;;14.47;100.00
56992;BME280;42885;49.754;18.636;2022-08-30T04:00:16;98710.94;;;14.55;100.00
56992;BME280;42885;49.754;18.636;2022-08-30T04:02:47;98711.37;;;14.62;100.00
56992;BME280;42885;49.754;18.636;2022-08-30T04:05:18;98710.42;;;14.76;100.00
56992;BME280;42885;49.754;18.636;2022-08-30T04:07:49;98709.10;;;14.76;100.00
56992;BME280;42885;49.754;18.636;2022-08-30T04:10:20;98723.84;;;14.40;100.00
56992;BME280;42885;49.754;18.636;2022-08-30T04:12:51;98722.47;;;14.47;100.00
56992;BME280;42885;49.754;18.636;2022-08-30T04:15:25;98721.66;;;14.47;100.00
56992;BME280;42885;49.754;18.636;2022-08-30T04:17:56;98723.80;;;14.47;100.00
56992;BME280;42885;49.754;18.636;2022-08-30T04:20:27;98722.95;;;14.59;100.00
56992;BME280;42885;49.754;18.636;2022-08-30T04:22:57;98725.09;;;14.60;100.00
56992;BME280;42885;49.754;18.636;2022-08-30T04:25:28;98730.84;;;14.72;100.00
56992;BME280;42885;49.754;18.636;2022-08-30T04:27:59;98723.49;;;14.78;100.00
56992;BME280;42885;49.754;18.636;2022-08-30T04:30:31;98730.94;;;14.71;100.00
56992;BME280;42885;49.754;18.636;2022-08-30T04:33:02;98729.59;;;14.52;100.00
56992;BME280;42885;49.754;18.636;2022-08-30T04:35:32;98732.70;;;14.39;100.00
56992;BME280;42885;49.754;18.636;2022-08-30T04:38:03;98741.77;;;14.73;100.00
56992;BME280;42885;49.754;18.636;2022-08-30T04:40:34;98737.66;;;14.82;100.00
56992;BME280;42885;49.754;18.636;2022-08-30T04:43:05;98748.22;;;14.10;100.00
56992;BME280;42885;49.754;18.636;2022-08-30T04:45:38;98747.18;;;14.39;100.00
56992;BME280;42885;49.754;18.636;2022-08-30T04:48:10;98748.56;;;14.83;100.00
56992;BME280;42885;49.754;18.636;2022-08-30T04:50:42;98746.67;;;14.47;100.00
56992;BME280;42885;49.754;18.636;2022-08-30T04:53:14;98749.48;;;14.17;100.00
56992;BME280;42885;49.754;18.636;2022-08-30T04:55:45;98751.66;;;14.18;100.00
56992;BME280;42885;49.754;18.636;2022-08-30T04:58:16;98754.55;;;14.72;100.00
56992;BME280;42885;49.754;18.636;2022-08-30T05:00:47;98753.47;;;14.82;100.00
56992;BME280;42885;49.754;18.636;2022-08-30T05:03:17;98760.48;;;14.95;100.00
56992;BME280;42885;49.754;18.636;2022-08-30T05:05:49;98761.56;;;14.79;100.00
56992;BME280;42885;49.754;18.636;2022-08-30T05:08:21;98765.77;;;14.69;100.00
56992;BME280;42885;49.754;18.636;2022-08-30T05:10:52;98755.51;;;14.84;100.00
56992;BME280;42885;49.754;18.636;2022-08-30T05:13:23;98759.36;;;14.86;100.00
56992;BME280;42885;49.754;18.636;2022-08-30T05:15:54;98763.45;;;14.90;100.00
56992;BME280;42885;49.754;18.636;2022-08-30T05:18:25;98761.28;;;14.90;100.00
56992;BME280;42885;49.754;18.636;2022-08-30T05:21:05;98756.60;;;15.06;100.00
56992;BME280;42885;49.754;18.636;2022-08-30T05:23:38;98762.77;;;15.12;100.00
56992;BME280;42885;49.754;18.636;2022-08-30T05:26:14;98766.35;;;15.11;100.00
56992;BME280;42885;49.754;18.636;2022-08-30T05:28:46;98763.66;;;15.43;100.00
56992;BME280;42885;49.754;18.636;2022-08-30T05:31:19;98764.33;;;15.34;100.00
56992;BME280;42885;49.754;18.636;2022-08-30T05:33:52;98766.66;;;15.68;100.00
56992;BME280;42885;49.754;18.636;2022-08-30T05:36:25;98762.12;;;15.95;100.00
56992;BME280;42885;49.754;18.636;2022-08-30T05:38:57;98770.14;;;16.41;100.00
56992;BME280;42885;49.754;18.636;2022-08-30T05:41:29;98771.50;;;16.86;100.00
56992;BME280;42885;49.754;18.636;2022-08-30T05:44:01;98779.42;;;16.69;100.00
56992;BME280;42885;49.754;18.636;2022-08-30T05:46:32;98775.31;;;16.48;100.00
56992;BME280;42885;49.754;18.636;2022-08-30T05:49:06;98773.53;;;16.48;100.00
56992;BME280;42885;49.754;18.636;2022-08-30T05:51:36;98773.41;;;16.78;100.00
56992;BME280;42885;49.754;18.636;2022-08-30T05:54:07;98774.08;;;17.38;100.00
56992;BME280;42885;49.754;18.636;2022-08-30T05:56:38;98772.33;;;16.87;100.00
56992;BME280;42885;49.754;18.636;2022-08-30T05:59:11;98772.58;;;17.01;100.00
56992;BME280;42885;49.754;18.636;2022-08-30T06:01:44;98778.09;;;16.98;100.00
56992;BME280;42885;49.754;18.636;2022-08-30T06:04:16;98778.97;;;17.04;100.00
56992;BME280;42885;49.754;18.636;2022-08-30T06:06:47;98775.92;;;17.20;100.00
56992;BME280;42885;49.754;18.636;2022-08-30T06:09:18;98778.38;;;17.56;100.00
56992;BME280;42885;49.754;18.636;2022-08-30T06:11:49;98782.95;;;17.54;100.00
56992;BME280;42885;49.754;18.636;2022-08-30T06:14:21;98771.08;;;17.37;100.00
56992;BME280;42885;49.754;18.636;2022-08-30T06:16:51;98772.63;;;17.45;100.00
56992;BME280;42885;49.754;18.636;2022-08-30T06:19:22;98769.73;;;17.54;100.00
56992;BME280;42885;49.754;18.636;2022-08-30T06:21:53;98780.42;;;17.52;100.00
56992;BME280;42885;49.754;18.636;2022-08-30T06:24:24;98771.29;;;17.56;100.00
56992;BME280;42885;49.754;18.636;2022-08-30T06:26:55;98770.80;;;17.89;100.00
56992;BME280;42885;49.754;18.636;2022-08-30T06:29:26;98766.86;;;17.78;100.00
56992;BME280;42885;49.754;18.636;2022-08-30T06:31:57;98767.97;;;17.97;100.00
56992;BME280;42885;49.754;18.636;2022-08-30T06:34:29;98760.84;;;18.03;100.00
56992;BME280;42885;49.754;18.636;2022-08-30T06:37:00;98766.28;;;18.28;100.00
56992;BME280;42885;49.754;18.636;2022-08-30T06:39:30;98764.80;;;18.36;100.00
56992;BME280;42885;49.754;18.636;2022-08-30T06:42:01;98759.80;;;18.42;100.00
56992;BME280;42885;49.754;18.636;2022-08-30T06:44:34;98766.88;;;18.48;100.00
56992;BME280;42885;49.754;18.636;2022-08-30T06:47:05;98769.09;;;18.99;100.00
56992;BME280;42885;49.754;18.636;2022-08-30T06:49:36;98769.09;;;18.99;100.00
56992;BME280;42885;49.754;18.636;2022-08-30T06:52:07;98764.50;;;19.17;100.00
56992;BME280;42885;49.754;18.636;2022-08-30T06:54:38;98769.45;;;19.06;100.00
56992;BME280;42885;49.754;18.636;2022-08-30T06:57:09;98771.53;;;18.96;100.00
56992;BME280;42885;49.754;18.636;2022-08-30T06:59:41;98765.73;;;19.28;100.00
56992;BME280;42885;49.754;18.636;2022-08-30T15:20:33;98584.75;;;28.06;43.59
56992;BME280;42885;49.754;18.636;2022-08-30T15:26:31;98579.10;;;26.93;51.68
56992;BME280;42885;49.754;18.636;2022-08-30T15:29:02;98579.86;;;26.87;51.34
56992;BME280;42885;49.754;18.636;2022-08-30T15:31:40;98583.67;;;26.67;55.23
56992;BME280;42885;49.754;18.636;2022-08-30T15:34:45;98581.44;;;26.34;54.11
56992;BME280;42885;49.754;18.636;2022-08-30T15:37:05;98579.57;;;26.34;49.65
56992;BME280;42885;49.754;18.636;2022-08-30T15:39:38;98583.09;;;25.90;52.03
56992;BME280;42885;49.754;18.636;2022-08-30T15:42:09;98585.66;;;25.68;54.99
56992;BME280;42885;49.754;18.636;2022-08-30T15:44:41;98575.34;;;25.61;58.39
56992;BME280;42885;49.754;18.636;2022-08-30T15:47:11;98576.48;;;25.66;60.23
56992;BME280;42885;49.754;18.636;2022-08-30T15:53:20;98572.67;;;25.41;59.84
56992;BME280;42885;49.754;18.636;2022-08-30T15:55:52;98566.86;;;24.95;63.21
56992;BME280;42885;49.754;18.636;2022-08-30T15:58:27;98566.72;;;25.54;58.39
56992;BME280;42885;49.754;18.636;2022-08-30T16:00:58;98572.41;;;24.58;64.13
56992;BME280;42885;49.754;18.636;2022-08-30T16:03:29;98572.41;;;24.58;64.13
56992;BME280;42885;49.754;18.636;2022-08-30T16:06:10;98571.89;;;24.31;70.82
56992;BME280;42885;49.754;18.636;2022-08-30T16:08:43;98572.61;;;24.16;70.56
56992;BME280;42885;49.754;18.636;2022-08-30T16:11:16;98563.78;;;24.43;63.25
56992;BME280;42885;49.754;18.636;2022-08-30T16:13:52;98573.98;;;24.04;69.76
56992;BME280;42885;49.754;18.636;2022-08-30T16:16:22;98569.56;;;23.63;74.79
56992;BME280;42885;49.754;18.636;2022-08-30T16:18:54;98562.38;;;23.72;76.23
56992;BME280;42885;49.754;18.636;2022-08-30T16:21:33;98564.55;;;23.68;76.69
56992;BME280;42885;49.754;18.636;2022-08-30T16:24:07;98563.64;;;23.92;73.08
56992;BME280;42885;49.754;18.636;2022-08-30T16:26:38;98566.64;;;23.93;73.31
56992;BME280;42885;49.754;18.636;2022-08-30T16:29:10;98562.30;;;23.92;75.85
56992;BME280;42885;49.754;18.636;2022-08-30T16:31:42;98556.62;;;23.91;75.23
56992;BME280;42885;49.754;18.636;2022-08-30T16:34:18;98557.47;;;23.88;74.55
56992;BME280;42885;49.754;18.636;2022-08-30T16:36:49;98559.67;;;23.76;74.89
56992;BME280;42885;49.754;18.636;2022-08-30T16:39:35;98561.37;;;23.73;74.47
56992;BME280;42885;49.754;18.636;2022-08-30T16:42:06;98560.41;;;23.49;78.50
56992;BME280;42885;49.754;18.636;2022-08-30T16:44:39;98553.06;;;23.55;79.10
56992;BME280;42885;49.754;18.636;2022-08-30T16:47:10;98555.88;;;23.66;78.31
56992;BME280;42885;49.754;18.636;2022-08-30T16:49:41;98552.73;;;23.54;80.54
56992;BME280;42885;49.754;18.636;2022-08-30T17:02:03;98558.73;;;23.06;86.60
56992;BME280;42885;49.754;18.636;2022-08-30T17:04:29;98558.41;;;23.14;85.63
56992;BME280;42885;49.754;18.636;2022-08-30T17:07:00;98556.88;;;22.90;91.57
56992;BME280;42885;49.754;18.636;2022-08-30T17:09:31;98554.05;;;22.92;91.84
56992;BME280;42885;49.754;18.636;2022-08-30T17:12:04;98560.87;;;22.90;91.55
56992;BME280;42885;49.754;18.636;2022-08-30T17:14:34;98571.38;;;22.71;91.06
56992;BME280;42885;49.754;18.636;2022-08-30T17:21:17;98567.20;;;22.68;95.58
56992;BME280;42885;49.754;18.636;2022-08-30T17:23:50;98561.34;;;22.69;93.00
56992;BME280;42885;49.754;18.636;2022-08-30T17:26:20;98566.89;;;22.84;92.67
56992;BME280;42885;49.754;18.636;2022-08-30T17:28:54;98567.23;;;22.85;94.24
56992;BME280;42885;49.754;18.636;2022-08-30T17:31:25;98582.87;;;22.67;98.37
56992;BME280;42885;49.754;18.636;2022-08-30T17:34:04;98577.01;;;22.55;98.57
56992;BME280;42885;49.754;18.636;2022-08-30T17:36:55;98581.71;;;22.74;100.00
56992;BME280;42885;49.754;18.636;2022-08-30T17:42:34;98587.83;;;22.50;100.00
56992;BME280;42885;49.754;18.636;2022-08-30T17:46:15;98593.56;;;22.33;100.00
56992;BME280;42885;49.754;18.636;2022-08-30T17:49:34;98602.67;;;22.18;100.00
56992;BME280;42885;49.754;18.636;2022-08-30T18:00:08;98609.16;;;21.84;100.00
56992;BME280;42885;49.754;18.636;2022-08-30T18:18:39;98623.55;;;21.51;100.00
56992;BME280;42885;49.754;18.636;2022-08-30T18:43:15;98640.13;;;20.90;100.00
56992;BME280;42885;49.754;18.636;2022-08-30T18:54:06;98641.06;;;20.57;100.00
56992;BME280;42885;49.754;18.636;2022-08-30T19:11:02;98643.53;;;20.83;100.00
56992;BME280;42885;49.754;18.636;2022-08-30T19:13:35;98647.52;;;20.41;100.00
56992;BME280;42885;49.754;18.636;2022-08-30T19:16:07;98649.19;;;20.42;100.00
56992;BME280;42885;49.754;18.636;2022-08-30T19:18:38;98648.44;;;20.35;100.00
56992;BME280;42885;49.754;18.636;2022-08-30T19:21:09;98648.50;;;20.40;100.00
56992;BME280;42885;49.754;18.636;2022-08-30T19:23:39;98649.73;;;20.31;100.00
56992;BME280;42885;49.754;18.636;2022-08-30T19:26:11;98645.68;;;20.03;100.00
56992;BME280;42885;49.754;18.636;2022-08-30T19:28:42;98652.96;;;20.25;100.00
56992;BME280;42885;49.754;18.636;2022-08-30T19:31:28;98649.56;;;19.85;100.00
56992;BME280;42885;49.754;18.636;2022-08-30T19:33:55;98653.55;;;19.75;100.00
56992;BME280;42885;49.754;18.636;2022-08-30T19:36:26;98653.52;;;20.05;100.00
56992;BME280;42885;49.754;18.636;2022-08-30T19:38:57;98652.34;;;19.84;100.00
56992;BME280;42885;49.754;18.636;2022-08-30T19:41:28;98649.41;;;20.20;100.00
56992;BME280;42885;49.754;18.636;2022-08-30T19:44:02;98651.08;;;19.98;100.00
56992;BME280;42885;49.754;18.636;2022-08-30T19:46:33;98649.05;;;20.05;100.00
56992;BME280;42885;49.754;18.636;2022-08-30T19:49:04;98651.70;;;20.05;100.00
56992;BME280;42885;49.754;18.636;2022-08-30T19:51:37;98651.70;;;20.05;100.00
56992;BME280;42885;49.754;18.636;2022-08-30T19:54:08;98655.20;;;20.20;100.00
56992;BME280;42885;49.754;18.636;2022-08-30T19:56:39;98657.59;;;19.99;100.00
56992;BME280;42885;49.754;18.636;2022-08-30T19:59:09;98654.99;;;19.93;100.00
56992;BME280;42885;49.754;18.636;2022-08-30T20:01:47;98648.88;;;19.73;100.00
56992;BME280;42885;49.754;18.636;2022-08-30T20:04:26;98644.56;;;19.13;100.00
56992;BME280;42885;49.754;18.636;2022-08-30T20:06:58;98651.75;;;19.46;100.00
56992;BME280;42885;49.754;18.636;2022-08-30T20:09:29;98652.59;;;19.37;100.00
56992;BME280;42885;49.754;18.636;2022-08-30T20:12:00;98657.27;;;19.49;100.00
56992;BME280;42885;49.754;18.636;2022-08-30T20:14:31;98657.33;;;19.63;100.00
56992;BME280;42885;49.754;18.636;2022-08-30T20:17:02;98648.54;;;19.72;100.00
56992;BME280;42885;49.754;18.636;2022-08-30T20:19:33;98650.22;;;19.63;100.00
56992;BME280;42885;49.754;18.636;2022-08-30T20:22:03;98652.25;;;19.36;100.00
56992;BME280;42885;49.754;18.636;2022-08-30T20:24:35;98650.78;;;19.28;100.00
56992;BME280;42885;49.754;18.636;2022-08-30T20:27:06;98656.09;;;19.28;100.00
56992;BME280;42885;49.754;18.636;2022-08-30T20:29:37;98640.66;;;19.37;100.00
56992;BME280;42885;49.754;18.636;2022-08-30T20:32:08;98642.56;;;19.31;100.00
56992;BME280;42885;49.754;18.636;2022-08-30T20:34:39;98640.67;;;18.82;100.00
56992;BME280;42885;49.754;18.636;2022-08-30T20:37:19;98646.73;;;18.22;100.00
56992;BME280;42885;49.754;18.636;2022-08-30T20:39:44;98645.17;;;18.25;100.00
56992;BME280;42885;49.754;18.636;2022-08-30T20:42:16;98647.64;;;18.32;100.00
56992;BME280;42885;49.754;18.636;2022-08-30T20:44:48;98640.91;;;18.28;100.00
56992;BME280;42885;49.754;18.636;2022-08-30T20:47:20;98644.64;;;18.15;100.00
56992;BME280;42885;49.754;18.636;2022-08-30T20:49:51;98644.06;;;18.12;100.00
56992;BME280;42885;49.754;18.636;2022-08-30T20:52:22;98641.59;;;18.20;100.00
56992;BME280;42885;49.754;18.636;2022-08-30T20:54:53;98645.39;;;18.12;100.00
56992;BME280;42885;49.754;18.636;2022-08-30T20:57:23;98640.62;;;18.00;100.00
56992;BME280;42885;49.754;18.636;2022-08-30T20:59:58;98642.74;;;17.91;100.00
56992;BME280;42885;49.754;18.636;2022-08-30T21:02:28;98646.52;;;17.82;100.00
56992;BME280;42885;49.754;18.636;2022-08-30T21:05:02;98641.74;;;17.76;100.00
56992;BME280;42885;49.754;18.636;2022-08-30T21:07:34;98645.12;;;17.94;100.00
56992;BME280;42885;49.754;18.636;2022-08-30T21:10:05;98642.78;;;17.85;100.00
56992;BME280;42885;49.754;18.636;2022-08-30T21:12:36;98647.22;;;17.84;100.00
56992;BME280;42885;49.754;18.636;2022-08-30T21:15:08;98650.06;;;17.93;100.00
56992;BME280;42885;49.754;18.636;2022-08-30T21:17:39;98649.95;;;17.67;100.00
56992;BME280;42885;49.754;18.636;2022-08-30T21:20:10;98650.09;;;17.39;100.00
56992;BME280;42885;49.754;18.636;2022-08-30T21:22:42;98648.52;;;17.20;100.00
56992;BME280;42885;49.754;18.636;2022-08-30T21:25:13;98647.05;;;17.28;100.00
56992;BME280;42885;49.754;18.636;2022-08-30T21:27:44;98649.28;;;17.38;100.00
56992;BME280;42885;49.754;18.636;2022-08-30T21:30:15;98645.48;;;17.52;100.00
56992;BME280;42885;49.754;18.636;2022-08-30T21:32:46;98646.80;;;17.52;100.00
56992;BME280;42885;49.754;18.636;2022-08-30T21:35:18;98647.22;;;17.42;100.00
56992;BME280;42885;49.754;18.636;2022-08-30T21:38:08;98650.58;;;17.65;100.00
56992;BME280;42885;49.754;18.636;2022-08-30T21:40:40;98648.69;;;17.34;100.00
56992;BME280;42885;49.754;18.636;2022-08-30T21:43:11;98644.33;;;17.12;100.00
56992;BME280;42885;49.754;18.636;2022-08-30T21:45:43;98642.98;;;17.45;100.00
56992;BME280;42885;49.754;18.636;2022-08-30T21:48:18;98642.02;;;17.52;100.00
56992;BME280;42885;49.754;18.636;2022-08-30T21:50:57;98649.86;;;17.42;100.00
56992;BME280;42885;49.754;18.636;2022-08-30T21:53:27;98653.80;;;17.47;100.00
56992;BME280;42885;49.754;18.636;2022-08-30T21:56:09;98641.02;;;16.87;100.00
56992;BME280;42885;49.754;18.636;2022-08-30T21:58:40;98655.20;;;16.86;100.00
56992;BME280;42885;49.754;18.636;2022-08-30T22:01:14;98646.16;;;16.89;100.00
56992;BME280;42885;49.754;18.636;2022-08-30T22:03:47;98639.64;;;17.16;100.00
56992;BME280;42885;49.754;18.636;2022-08-30T22:06:18;98637.84;;;17.11;100.00
56992;BME280;42885;49.754;18.636;2022-08-30T22:08:49;98630.75;;;17.05;100.00
56992;BME280;42885;49.754;18.636;2022-08-30T22:11:22;98632.08;;;17.05;100.00
56992;BME280;42885;49.754;18.636;2022-08-30T22:13:54;98627.30;;;16.93;100.00
56992;BME280;42885;49.754;18.636;2022-08-30T22:16:26;98626.09;;;16.92;100.00
56992;BME280;42885;49.754;18.636;2022-08-30T22:18:58;98625.74;;;16.91;100.00
56992;BME280;42885;49.754;18.636;2022-08-30T22:21:32;98625.39;;;16.90;100.00
56992;BME280;42885;49.754;18.636;2022-08-30T22:24:06;98631.24;;;16.44;100.00
56992;BME280;42885;49.754;18.636;2022-08-30T22:26:37;98624.75;;;16.42;100.00
56992;BME280;42885;49.754;18.636;2022-08-30T22:29:09;98623.90;;;16.42;100.00
56992;BME280;42885;49.754;18.636;2022-08-30T22:31:40;98617.78;;;16.30;100.00
56992;BME280;42885;49.754;18.636;2022-08-30T22:34:15;98622.20;;;16.46;100.00
56992;BME280;42885;49.754;18.636;2022-08-30T22:36:46;98618.92;;;16.71;100.00
56992;BME280;42885;49.754;18.636;2022-08-30T22:39:17;98622.33;;;16.39;100.00
56992;BME280;42885;49.754;18.636;2022-08-30T22:41:48;98619.59;;;16.35;100.00
56992;BME280;42885;49.754;18.636;2022-08-30T22:44:18;98619.80;;;16.55;100.00
56992;BME280;42885;49.754;18.636;2022-08-30T22:46:49;98616.47;;;16.24;100.00
56992;BME280;42885;49.754;18.636;2022-08-30T22:49:20;98619.45;;;16.31;100.00
56992;BME280;42885;49.754;18.636;2022-08-30T22:51:51;98616.59;;;16.34;100.00
56992;BME280;42885;49.754;18.636;2022-08-30T22:54:23;98622.61;;;16.19;100.00
56992;BME280;42885;49.754;18.636;2022-08-30T22:56:54;98621.77;;;16.35;100.00
56992;BME280;42885;49.754;18.636;2022-08-30T22:59:25;98625.36;;;16.40;100.00
56992;BME280;42885;49.754;18.636;2022-08-30T23:01:56;98629.91;;;16.49;100.00
56992;BME280;42885;49.754;18.636;2022-08-30T23:04:28;98635.92;;;16.17;100.00